• Join FlightAware (Why Join?)
  • Login
  • US Flag 
12:48AM EDT


 

Airport Tracker/Info


-or-


 

Live Flight TrackerFlight Track Log ✈ DAL6034 ✈ 10-Nov-2013 ✈ KLGA - KCVG

Flight Track Log - Related Links

Times and Time Zones

All times are in EST time to prevent confusion due to time zone crossing. See the DAL6034 flight status page for this flight to view local times or setup timezone preferences in your user account.

Time Position Orientation Groundspeed Altitude Reporting Facility
EST Latitude Longitude Course Direction KTS MPH feet Rate Location/Type
11:02AM 40.8000 -73.9000 270° West 168 193 1,200  Level New York TRACON
11:03AM 40.8500 -73.9167 346° North 197 227 3,300 2,100 Climbing New York TRACON
11:04AM 40.9000 -73.9500 333° Northwest 221 254 5,200 2,100 Climbing New York TRACON
11:05AM 40.7386 -74.2180 264° West  Level Estimated
11:05AM 40.9167 -74.0167 288° West 232 267 7,300  Level New York TRACON
11:06AM 40.7326 -74.3341 266° West  Level FlightAware Approximate
11:06AM 40.9000 -74.1000 255° West 233 268 9,500  Level New York TRACON
11:07AM 40.7193 -74.4492 270° West  Level Estimated
11:07AM 40.8833 -74.1833 255° West 243 280 11,500  Level New York TRACON
11:08AM 40.7059 -74.5641 270° West  Level Estimated
11:08AM 40.8667 -74.2667 255° West 245 282 13,500  Level New York TRACON
11:09AM 40.8500 -74.3667 258° West 252 290 15,000 1,320 Climbing New York TRACON
11:10AM 40.8167 -74.4667 246° West 269 310 16,300 720 Climbing New York TRACON
11:12AM 40.7886 -74.6164 256° West 278 320 17,000 300 Climbing New York Center
11:13AM 40.7667 -74.7139 253° West 285 328 17,200 480 Climbing New York Center
11:14AM 40.7425 -74.8111 252° West 279 321 18,000 1,020 Climbing New York Center
11:15AM 40.7061 -74.9019 242° Southwest 279 321 19,300 1,380 Climbing New York Center
11:16AM 40.6717 -74.9875 242° Southwest 274 315 20,800 1,260 Climbing New York Center
11:21AM 40.4880 -75.4250 242° Southwest 258 297 27,700 1,200 Climbing FlightAware
11:22AM 40.4740 -75.4580 241° Southwest 260 299 28,200 1,080 Climbing FlightAware
11:23AM 40.4220 -75.5830 241° Southwest 257 296 29,800 1,020 Climbing FlightAware
11:24AM 40.4010 -75.6330 241° Southwest 256 295 30,400 960 Climbing FlightAware
11:25AM 40.3770 -75.6890 241° Southwest 251 289 31,000 840 Climbing FlightAware
11:25AM 40.3560 -75.7380 241° Southwest 239 275 31,500 900 Climbing FlightAware
11:26AM 40.3290 -75.8020 241° Southwest 240 276 32,200 900 Climbing FlightAware
11:26AM 40.3070 -75.8540 241° Southwest 271 312 32,700 900 Climbing FlightAware
11:27AM 40.2900 -75.8960 242° Southwest 265 305 33,200 900 Climbing FlightAware
11:28AM 40.2640 -75.9550 240° Southwest 272 313 33,800 660 Climbing FlightAware
11:28AM 40.2390 -76.0140 241° Southwest 273 314 34,100 120 Climbing FlightAware
11:29AM 40.2160 -76.0670 240° Southwest 293 337 34,000 -120 Descending FlightAware
11:29AM 40.1920 -76.1220 240° Southwest 295 339 34,000  Level FlightAware
11:30AM 40.1690 -76.1770 241° Southwest 299 344 34,000  Level FlightAware
11:31AM 40.1500 -76.2230 242° Southwest 302 348 34,000  Level FlightAware
11:31AM 40.1230 -76.2850 240° Southwest 293 337 34,000  Level FlightAware
11:32AM 40.0980 -76.3390 239° Southwest 297 342 34,000  Level FlightAware
11:32AM 40.0710 -76.4010 240° Southwest 296 341 34,000  Level FlightAware
11:34AM 40.0240 -76.4990 238° Southwest 288 331 34,000  Level FlightAware
11:34AM 39.9990 -76.5520 238° Southwest 298 343 34,000  Level FlightAware
11:35AM 39.9700 -76.6120 238° Southwest 291 335 34,000  Level FlightAware
11:35AM 39.9430 -76.6730 240° Southwest 290 334 34,000  Level FlightAware
11:36AM 39.9160 -76.7340 240° Southwest 293 337 34,000  Level FlightAware
11:37AM 39.8900 -76.7890 238° Southwest 302 348 34,000  Level FlightAware
11:38AM 39.8440 -76.8850 238° Southwest 321 369 34,000  Level FlightAware
11:38AM 39.8180 -76.9420 239° Southwest 319 367 34,000  Level FlightAware
11:39AM 39.7870 -77.0080 239° Southwest 323 372 34,000  Level FlightAware
11:40AM 39.7560 -77.0730 238° Southwest 302 348 34,000  Level FlightAware
11:40AM 39.7340 -77.1200 239° Southwest 304 350 34,000  Level FlightAware
11:41AM 39.6960 -77.2010 239° Southwest 310 357 34,000  Level FlightAware
11:42AM 39.6670 -77.2630 239° Southwest 305 351 34,000  Level FlightAware
11:42AM 39.6410 -77.3160 238° Southwest 306 352 34,000  Level FlightAware
11:43AM 39.6150 -77.3720 239° Southwest 305 351 34,000  Level FlightAware
11:43AM 39.5920 -77.4190 238° Southwest 310 357 34,000  Level FlightAware
11:44AM 39.5580 -77.4900 238° Southwest 328 377 34,000  Level FlightAware
11:45AM 39.5310 -77.5450 238° Southwest 317 365 34,000  Level FlightAware
11:45AM 39.4900 -77.6330 239° Southwest 330 380 34,000  Level FlightAware
11:46AM 39.4620 -77.6890 237° Southwest 328 377 34,000  Level FlightAware
11:47AM 39.4170 -77.7830 238° Southwest 327 376 34,000  Level FlightAware
11:48AM 39.3870 -77.8460 238° Southwest 327 376 34,000  Level FlightAware
11:48AM 39.3740 -77.8780 242° Southwest 325 374 34,000  Level FlightAware
11:49AM 39.3450 -77.9520 243° Southwest 325 374 34,000  Level FlightAware
11:49AM 39.3240 -78.0050 243° Southwest 325 374 34,000  Level FlightAware
11:50AM 39.3020 -78.0610 243° Southwest 325 374 34,000  Level FlightAware
11:51AM 39.2750 -78.1280 243° Southwest 325 374 34,000  Level FlightAware
11:52AM 39.2390 -78.2200 243° Southwest 325 374 34,000  Level FlightAware
11:53AM 39.2040 -78.3090 243° Southwest 325 374 34,000  Level FlightAware
11:53AM 39.1900 -78.3440 243° Southwest 325 374 34,000  Level FlightAware
11:54AM 39.1630 -78.4130 243° Southwest 325 374 34,000  Level FlightAware
11:55AM 39.1420 -78.4660 243° Southwest 325 374 34,000  Level FlightAware
11:55AM 39.1200 -78.5210 243° Southwest 325 374 34,000  Level FlightAware
11:56AM 39.0990 -78.5750 243° Southwest 325 374 34,000  Level FlightAware
11:56AM 39.0770 -78.6290 242° Southwest 325 374 34,000  Level FlightAware
11:57AM 39.0420 -78.7190 243° Southwest 325 374 34,000  Level FlightAware
11:58AM 39.0290 -78.7510 242° Southwest 325 374 34,000  Level FlightAware
11:59AM 38.9125 -79.0225 242° Southwest 325 374 34,000  Level Washington Center
12:00PM 38.8719 -79.1219 242° Southwest 320 368 34,000  Level Washington Center
12:01PM 38.8375 -79.2297 248° West 320 368 34,000  Level Washington Center
12:02PM 38.8364 -79.3389 269° West 310 357 34,000  Level Washington Center
12:03PM 38.8347 -79.4533 269° West 310 357 34,000  Level Washington Center
12:04PM 38.8331 -79.5678 269° West 315 362 34,000  Level Washington Center
12:05PM 38.8333 -79.6825 270° West 339 390 34,000  Level Washington Center
12:06PM 38.8317 -79.7969 269° West 339 390 34,000  Level Washington Center
12:07PM 38.8272 -79.9167 267° West 339 390 34,000  Level Washington Center
12:08PM 38.8211 -80.0603 267° West 327 376 34,000  Level Indianapolis Center
12:09PM 38.8183 -80.1764 268° West 326 375 34,000  Level Indianapolis Center
12:10PM 38.8147 -80.2900 268° West 321 369 34,000  Level Indianapolis Center
12:11PM 38.8117 -80.4053 268° West 322 371 34,000  Level Indianapolis Center
12:12PM 38.8089 -80.5206 268° West 322 371 34,000  Level Indianapolis Center
12:13PM 38.8050 -80.6350 268° West 321 369 34,000  Level Indianapolis Center
12:14PM 38.8017 -80.7489 268° West 320 368 34,000  Level Indianapolis Center
12:15PM 38.7989 -80.8639 268° West 322 371 34,000  Level Indianapolis Center
12:16PM 38.7939 -81.0011 267° West 320 368 34,000  Level Indianapolis Center
12:17PM 38.7894 -81.1150 267° West 320 368 34,000  Level Indianapolis Center
12:18PM 38.7856 -81.2292 268° West 321 369 34,000 -240 Level Indianapolis Center
12:19PM 38.7764 -81.3439 264° West 324 373 33,600 -780 Descending Indianapolis Center
12:21PM 38.7549 -81.4583 256° West  Level FlightAware Approximate
12:21PM 38.7336 -81.5736 256° West 326 375 31,600  Level Indianapolis Center
12:23PM 38.7114 -81.6939 257° West 321 369 30,400 -1,080 Descending Indianapolis Center
12:24PM 38.6911 -81.8031 257° West 318 366 29,400 -1,140 Descending Indianapolis Center
12:25PM 38.6697 -81.9139 256° West 320 368 28,100 -1,740 Descending Indianapolis Center
12:26PM 38.6486 -82.0247 256° West 321 369 25,900 -1,980 Descending Indianapolis Center
12:27PM 38.6278 -82.1331 256° West 315 362 24,100 -960 Descending Indianapolis Center
12:28PM 38.6075 -82.2408 256° West 311 358 24,000 -240 Descending Indianapolis Center
12:29PM 38.5853 -82.3553 256° West 326 375 23,700 -960 Descending Indianapolis Center
12:30PM 38.5578 -82.4981 256° West 340 391 22,100 -840 Descending Indianapolis Center
12:31PM 38.5344 -82.6178 256° West 337 388 22,000 -60 Descending Indianapolis Center
12:32PM 38.5206 -82.7297 261° West 322 371 22,000  Level Indianapolis Center
12:33PM 38.5303 -82.8425 276° West 322 371 22,000 -660 Level Indianapolis Center
12:34PM 38.5400 -82.9572 276° West 324 373 20,700 -1,320 Descending Indianapolis Center
12:35PM 38.5492 -83.0692 276° West 320 368 19,300 -1,440 Descending Indianapolis Center
12:36PM 38.5589 -83.1917 276° West 301 346 17,800 -1,320 Descending Indianapolis Center
12:37PM 38.5664 -83.2886 276° West 281 323 16,700 -1,200 Descending Indianapolis Center
12:38PM 38.5728 -83.3850 275° West 274 315 15,400 -1,260 Descending Indianapolis Center
12:39PM 38.5817 -83.4808 277° West 273 314 14,100 -1,260 Descending Indianapolis Center
12:40PM 38.5883 -83.5794 275° West 277 319 12,900 -1,260 Descending Indianapolis Center
12:41PM 38.5964 -83.6756 276° West 274 315 11,500 -1,380 Descending Indianapolis Center
12:42PM 38.6044 -83.7867 275° West 271 312 10,100 -720 Descending Indianapolis Center
12:43PM 38.6100 -83.8767 275° West 260 299 10,100 -60 Level Indianapolis Center
12:44PM 38.6336 -83.9606 290° West 257 296 10,000 -180 Descending Indianapolis Center
12:45PM 38.6558 -84.0486 288° West 253 291 9,800 -780 Descending Indianapolis Center
12:46PM 38.6444 -84.1247 259° West 239 275 8,500 -900 Descending Indianapolis Center
12:47PM 38.6508 -84.2078 276° West 222 255 8,000 -240 Descending Indianapolis Center
12:48PM 38.6639 -84.2900 282° West 228 262 8,100  Climbing Indianapolis Center
12:49PM 38.6836 -84.3669 288° West 237 273 8,100 -360 Level Indianapolis Center
12:50PM 38.7133 -84.4339 300° West 225 259 7,400 -840 Descending Indianapolis Center
12:51PM 38.7622 -84.4786 325° Northwest 217 250 6,400 -840 Descending Indianapolis Center
12:52PM 38.8211 -84.5381 322° Northwest 222 255 5,700 -600 Descending Indianapolis Center
12:53PM 38.8681 -84.5839 323° Northwest 223 257 5,200 -1,260 Descending Indianapolis Center
12:55PM 38.9333 -84.6333 329° Northwest 226 260 3,000 -1,380 Descending Cincinnati TRACON
12:56PM 38.9667 -84.6667 322° Northwest 152 175 2,300 -840 Descending Cincinnati TRACON
12:57PM 39.0000 -84.6667 360° North 133 153 1,500 -900 Descending Cincinnati TRACON